aviador You're here:

LFOJ Decoded Metar

ORLEANS in FRANCE
Report Time2017-11-24 20:00:00
UTC Time2017-11-24 20:23:41
Flight Rules mvfr MVFR
Wind250° at 05 kt
W.Decomp.*RWY 25: 5.0 kt HW 0.1 kt RCW
W.Rank250° ranks 6
Current wind is below 250° avg. (9.4)
Visibility9999 m
Phenomena:Rain
Clouds:Broken 014 Hf
Broken TCU 020 Hf
Expected CloudBase > 400 ft AGL from Temp-Dew spread
Ceiling1,400 ft
Temp08°C (ISA -6)
Dew Point07°C (93% RH)
AAT5.5°C
QNH1013 hPa
Density Alt-197 ft
Elevation410 ft
Report Wrong Elevation
Raw Report
LFOJ 242000Z AUTO 25005KT CAVOK 08/07 Q1013 TEMPO 3000 RA BKN014
BKN020TCU BKN040=

Extra information for LFOJ:More info

Metar Taf Metar & Taf Last 4 Metars F.Rules Stats Wind Profile Meteogram Temp Stats Airport Information Weather charts Add Link Nearby VenuesMetar ALERT Operation Metar Decoded Social comments